createdAt,value
2019-02-27T00:01:49.930Z,75.60
2019-02-27T00:04:21.518Z,73.25
2019-02-27T00:06:51.386Z,72.87
2019-02-27T00:09:22.331Z,83.45
2019-02-27T00:11:54.530Z,78.27
2019-02-27T00:14:28.840Z,75.07
2019-02-27T00:17:01.592Z,69.53
2019-02-27T00:19:31.935Z,74.17
2019-02-27T00:22:03.221Z,74.73
2019-02-27T00:24:33.046Z,74.35
2019-02-27T00:27:05.517Z,75.53
2019-02-27T00:29:36.759Z,75.20
2019-02-27T00:32:06.719Z,78.70
2019-02-27T00:34:38.907Z,83.73
2019-02-27T00:37:11.263Z,77.47
2019-02-27T00:39:42.616Z,72.70
2019-02-27T00:42:19.541Z,91.03
2019-02-27T00:44:49.008Z,80.70
2019-02-27T00:47:20.031Z,79.03
2019-02-27T00:49:51.607Z,89.03
2019-02-27T00:52:23.739Z,86.78
2019-02-27T00:54:53.634Z,76.23
2019-02-27T00:57:26.260Z,71.77
2019-02-27T00:59:56.033Z,81.93
2019-02-27T01:02:25.993Z,86.07
2019-02-27T01:04:57.595Z,79.83
2019-02-27T01:07:29.783Z,79.83
2019-02-27T01:10:02.247Z,75.57
2019-02-27T01:12:33.111Z,89.20
2019-02-27T01:15:05.310Z,95.37
2019-02-27T01:17:34.211Z,87.30
2019-02-27T01:20:05.651Z,91.30
2019-02-27T01:22:38.020Z,85.73
2019-02-27T01:25:07.925Z,78.93
2019-02-27T01:27:38.635Z,81.30
2019-02-27T01:30:19.283Z,80.10
2019-02-27T01:32:49.275Z,76.83
2019-02-27T01:35:20.435Z,88.80
2019-02-27T01:37:52.818Z,77.00
2019-02-27T01:40:26.730Z,79.20
2019-02-27T01:42:57.594Z,79.17
2019-02-27T01:45:28.617Z,76.17
2019-02-27T01:48:00.061Z,73.33
2019-02-27T01:50:35.912Z,68.27
2019-02-27T01:53:08.103Z,73.77
2019-02-27T01:55:37.529Z,71.73
2019-02-27T01:58:09.645Z,72.00
2019-02-27T02:00:42.072Z,75.78
2019-02-27T02:03:13.748Z,86.90
2019-02-27T02:05:45.272Z,82.40
2019-02-27T02:08:19.167Z,87.42
2019-02-27T02:10:48.906Z,77.67
2019-02-27T02:13:22.150Z,71.60
2019-02-27T02:16:08.959Z,84.57
2019-02-27T02:18:51.835Z,75.60
2019-02-27T02:22:02.496Z,72.60
2019-02-27T02:24:45.285Z,81.17
2019-02-27T02:27:39.110Z,89.93
2019-02-27T02:30:30.937Z,75.10
2019-02-27T02:33:09.124Z,82.40
2019-02-27T02:35:49.751Z,82.00
2019-02-27T02:38:22.354Z,84.70
2019-02-27T02:41:14.881Z,87.03
2019-02-27T02:44:06.309Z,85.87
2019-02-27T02:46:51.925Z,78.57
2019-02-27T02:49:33.646Z,93.43
2019-02-27T02:52:25.153Z,87.00
2019-02-27T02:55:13.504Z,85.37
2019-02-27T02:57:54.723Z,93.87
2019-02-27T03:00:38.948Z,93.63
2019-02-27T03:03:27.633Z,98.13
2019-02-27T03:06:18.671Z,86.20
2019-02-27T03:09:08.188Z,83.27
2019-02-27T03:11:54.258Z,89.73
2019-02-27T03:14:53.082Z,94.60
2019-02-27T03:17:32.821Z,94.03
2019-02-27T03:20:36.195Z,97.07
2019-02-27T03:23:09.160Z,86.47
2019-02-27T03:26:02.422Z,79.97
2019-02-27T03:29:15.824Z,77.37
2019-02-27T03:32:00.685Z,84.40
2019-02-27T03:34:48.351Z,76.57
2019-02-27T03:37:20.149Z,105.83
2019-02-27T03:40:12.789Z,93.23
2019-02-27T03:43:23.235Z,75.20
2019-02-27T03:46:03.012Z,83.03
2019-02-27T03:48:45.454Z,88.23
2019-02-27T03:51:46.647Z,74.32
2019-02-27T03:54:28.428Z,78.87
2019-02-27T03:57:30.510Z,73.33
2019-02-27T04:00:29.311Z,81.33
2019-02-27T04:03:19.566Z,74.00
2019-02-27T04:06:04.143Z,71.07
2019-02-27T04:08:44.716Z,83.40
2019-02-27T04:11:14.297Z,80.83
2019-02-27T04:13:44.180Z,84.43
2019-02-27T04:16:13.994Z,86.78
2019-02-27T04:18:45.521Z,91.70
2019-02-27T04:21:16.758Z,99.45
2019-02-27T04:23:48.975Z,88.87
2019-02-27T04:26:20.367Z,78.67
2019-02-27T04:28:51.259Z,92.57
2019-02-27T04:31:22.134Z,78.40
2019-02-27T04:33:52.938Z,78.97
2019-02-27T04:36:25.351Z,77.03
2019-02-27T04:39:00.042Z,72.90
2019-02-27T04:41:30.369Z,73.87
2019-02-27T04:44:00.198Z,72.90
2019-02-27T04:46:33.985Z,77.70
2019-02-27T04:49:04.843Z,91.87
2019-02-27T04:51:37.663Z,97.80
2019-02-27T04:54:07.586Z,78.53
2019-02-27T04:56:38.952Z,73.77
2019-02-27T04:59:08.770Z,81.67
2019-02-27T05:01:39.780Z,75.63
2019-02-27T05:04:12.677Z,70.60
2019-02-27T05:06:46.810Z,79.47
2019-02-27T05:09:14.319Z,73.83
2019-02-27T05:11:47.513Z,98.40
2019-02-27T05:14:19.374Z,79.13
2019-02-27T05:16:50.712Z,83.13
2019-02-27T05:19:25.471Z,85.57
2019-02-27T05:21:56.378Z,84.57
2019-02-27T05:24:30.351Z,91.50
2019-02-27T05:27:00.736Z,98.17
2019-02-27T05:29:31.263Z,91.87
2019-02-27T05:32:02.699Z,84.67
2019-02-27T05:34:32.541Z,83.83
2019-02-27T05:37:05.423Z,86.63
2019-02-27T05:39:39.904Z,81.30
2019-02-27T05:42:13.230Z,93.97
2019-02-27T05:44:43.858Z,88.43
2019-02-27T05:47:15.175Z,84.00
2019-02-27T05:49:45.538Z,95.60
2019-02-27T05:52:16.716Z,84.77
2019-02-27T05:54:47.840Z,86.57
2019-02-27T05:57:21.029Z,91.03
2019-02-27T05:59:51.684Z,99.70
2019-02-27T06:02:25.565Z,90.30
2019-02-27T06:04:58.791Z,116.37
2019-02-27T06:07:27.745Z,88.80
2019-02-27T06:09:57.736Z,108.33
2019-02-27T06:12:30.748Z,87.87
2019-02-27T06:15:03.024Z,94.13
2019-02-27T06:17:43.196Z,81.53
2019-02-27T06:20:08.017Z,89.37
2019-02-27T06:22:38.422Z,83.80
2019-02-27T06:25:11.197Z,106.37
2019-02-27T06:27:43.198Z,77.13
2019-02-27T06:30:23.035Z,142.07
2019-02-27T06:32:54.184Z,145.03
2019-02-27T06:35:27.337Z,143.30
2019-02-27T06:37:59.631Z,106.13
2019-02-27T06:40:31.795Z,81.77
2019-02-27T06:43:01.610Z,67.60
2019-02-27T06:45:34.656Z,82.27
2019-02-27T06:48:09.669Z,127.00
2019-02-27T06:50:38.665Z,85.30
2019-02-27T06:53:07.987Z,80.63
2019-02-27T06:55:38.530Z,102.40
2019-02-27T06:58:09.365Z,111.90
2019-02-27T07:00:41.989Z,88.97
2019-02-27T07:03:13.047Z,77.70
2019-02-27T07:05:45.507Z,99.80
2019-02-27T07:08:18.083Z,77.20
2019-02-27T07:10:49.319Z,93.93
2019-02-27T07:13:26.826Z,88.93
2019-02-27T07:15:56.285Z,76.13
2019-02-27T07:18:27.253Z,73.00
2019-02-27T07:20:58.416Z,76.37
2019-02-27T07:23:30.660Z,80.30
2019-02-27T07:26:02.425Z,75.00
2019-02-27T07:28:33.275Z,80.13
2019-02-27T07:31:05.719Z,76.63
2019-02-27T07:33:37.992Z,69.93
2019-02-27T07:36:08.147Z,69.93
2019-02-27T07:38:38.044Z,68.40
2019-02-27T07:41:08.893Z,64.37
2019-02-27T07:43:38.631Z,102.17
2019-02-27T07:46:11.254Z,82.97
2019-02-27T07:48:41.377Z,65.73
2019-02-27T07:51:12.435Z,72.97
2019-02-27T07:53:44.998Z,72.60
2019-02-27T07:56:15.035Z,81.40
2019-02-27T07:58:44.879Z,89.30
2019-02-27T08:01:15.258Z,65.53
2019-02-27T08:03:45.810Z,62.07
2019-02-27T08:06:16.914Z,69.55
2019-02-27T08:08:46.904Z,70.20
2019-02-27T08:11:19.133Z,70.62
2019-02-27T08:13:49.888Z,85.27
2019-02-27T08:16:21.946Z,132.57
2019-02-27T08:18:54.200Z,87.67
2019-02-27T08:21:26.940Z,75.60
2019-02-27T08:23:57.907Z,67.37
2019-02-27T08:26:28.786Z,82.30
2019-02-27T08:28:58.748Z,75.40
2019-02-27T08:31:31.974Z,74.47
2019-02-27T08:34:02.795Z,71.53
2019-02-27T08:36:32.827Z,73.50
2019-02-27T08:39:02.582Z,73.37
2019-02-27T08:41:32.563Z,84.13
2019-02-27T08:44:03.632Z,73.53
2019-02-27T08:46:37.143Z,69.90
2019-02-27T08:49:06.952Z,71.57
2019-02-27T08:51:39.753Z,66.60
2019-02-27T08:54:12.280Z,68.53
2019-02-27T08:56:44.161Z,74.97
2019-02-27T08:59:14.824Z,67.37
2019-02-27T09:01:45.247Z,68.83
2019-02-27T09:04:15.195Z,66.10
2019-02-27T09:06:47.028Z,66.03
2019-02-27T09:09:18.636Z,65.70
2019-02-27T09:11:51.184Z,69.97
2019-02-27T09:14:22.167Z,79.77
2019-02-27T09:16:53.146Z,74.33
2019-02-27T09:19:25.871Z,74.63
2019-02-27T09:21:56.776Z,72.73
2019-02-27T09:24:31.024Z,72.40
2019-02-27T09:27:02.407Z,71.67
2019-02-27T09:29:33.406Z,70.30
2019-02-27T09:32:04.336Z,69.30
2019-02-27T09:34:37.554Z,61.90
2019-02-27T09:37:08.427Z,58.07
2019-02-27T09:39:38.255Z,51.87
2019-02-27T09:42:09.198Z,55.20
2019-02-27T09:44:40.075Z,48.70
2019-02-27T09:47:11.109Z,48.10
2019-02-27T09:49:41.961Z,45.23
2019-02-27T09:52:13.222Z,40.87
2019-02-27T09:54:46.813Z,42.23
2019-02-27T09:57:16.975Z,38.93
2019-02-27T09:59:47.758Z,39.83
2019-02-27T10:02:17.532Z,42.37
2019-02-27T10:04:47.451Z,34.67
2019-02-27T10:07:17.893Z,39.08
2019-02-27T10:09:48.976Z,31.70
2019-02-27T10:12:20.200Z,30.60
2019-02-27T10:14:52.563Z,27.13
2019-02-27T10:17:23.519Z,24.73
2019-02-27T10:19:54.789Z,22.70
2019-02-27T10:22:25.848Z,17.70
2019-02-27T10:24:55.044Z,18.70
2019-02-27T10:27:28.823Z,17.33
2019-02-27T10:30:01.066Z,19.00
2019-02-27T10:32:31.689Z,16.77
2019-02-27T10:35:02.954Z,15.50
2019-02-27T10:37:34.443Z,15.57
2019-02-27T10:40:08.800Z,16.20
2019-02-27T10:42:38.639Z,12.80
2019-02-27T10:45:11.760Z,19.63
2019-02-27T10:47:41.677Z,16.23
2019-02-27T10:50:14.801Z,17.30
2019-02-27T10:52:44.737Z,17.90
2019-02-27T10:55:22.227Z,17.30
2019-02-27T10:57:53.262Z,16.33
2019-02-27T11:00:31.283Z,16.23
2019-02-27T11:03:01.629Z,14.40
2019-02-27T11:05:35.196Z,16.37
2019-02-27T11:08:06.073Z,15.57
2019-02-27T11:10:35.934Z,16.93
2019-02-27T11:13:07.045Z,15.83
2019-02-27T11:15:40.832Z,16.00
2019-02-27T11:18:09.134Z,17.30
2019-02-27T11:20:40.257Z,14.80
2019-02-27T11:23:11.360Z,14.13
2019-02-27T11:25:42.657Z,14.13
2019-02-27T11:28:12.615Z,13.93
2019-02-27T11:30:44.563Z,14.30
2019-02-27T11:33:25.141Z,14.80
2019-02-27T11:35:48.041Z,13.70
2019-02-27T11:38:18.069Z,13.10
2019-02-27T11:40:48.038Z,14.50
2019-02-27T11:43:19.351Z,12.70
2019-02-27T11:45:50.263Z,10.47
2019-02-27T11:48:20.402Z,12.43
2019-02-27T11:50:53.914Z,11.47
2019-02-27T11:53:26.624Z,12.23
2019-02-27T11:55:58.938Z,12.80
2019-02-27T11:58:28.925Z,13.33
2019-02-27T12:01:02.223Z,18.00
2019-02-27T12:03:33.235Z,10.00
2019-02-27T12:06:05.335Z,9.25
2019-02-27T12:08:35.582Z,8.93
2019-02-27T12:11:05.692Z,7.55
2019-02-27T12:13:36.747Z,8.23
2019-02-27T12:16:07.407Z,7.55
2019-02-27T12:18:37.295Z,8.05
2019-02-27T12:21:08.235Z,7.47
2019-02-27T12:23:41.201Z,6.95
2019-02-27T12:26:12.011Z,7.22
2019-02-27T12:28:42.575Z,5.85
2019-02-27T12:31:14.357Z,6.00
2019-02-27T12:33:44.079Z,7.05
2019-02-27T12:36:16.017Z,5.40
2019-02-27T12:38:46.740Z,6.10
2019-02-27T12:41:17.616Z,5.33
2019-02-27T12:43:52.324Z,5.20
2019-02-27T12:46:22.528Z,5.57
2019-02-27T12:48:53.923Z,5.03
2019-02-27T12:51:28.127Z,4.80
2019-02-27T12:54:00.512Z,4.77
2019-02-27T12:56:30.407Z,6.53
2019-02-27T12:59:00.375Z,6.03
2019-02-27T13:01:32.490Z,6.30
2019-02-27T13:04:03.677Z,7.10
2019-02-27T13:06:37.294Z,6.37
2019-02-27T13:09:07.741Z,6.37
2019-02-27T13:11:41.942Z,5.03
2019-02-27T13:14:12.340Z,4.40
2019-02-27T13:16:42.318Z,5.40
2019-02-27T13:19:14.717Z,5.20
2019-02-27T13:21:45.591Z,4.55
2019-02-27T13:24:15.975Z,5.17
2019-02-27T13:26:47.172Z,3.98
2019-02-27T13:29:20.605Z,4.10
2019-02-27T13:31:51.498Z,3.87
2019-02-27T13:34:21.302Z,4.70
2019-02-27T13:36:53.590Z,5.03
2019-02-27T13:39:25.600Z,4.20
2019-02-27T13:41:57.126Z,4.57
2019-02-27T13:44:28.241Z,4.60
2019-02-27T13:46:59.183Z,4.55
2019-02-27T13:49:29.056Z,4.30
2019-02-27T13:51:58.930Z,3.83
2019-02-27T13:54:32.594Z,4.10
2019-02-27T13:57:24.970Z,4.43
2019-02-27T13:59:53.227Z,4.57
2019-02-27T14:02:23.266Z,4.50
2019-02-27T14:04:57.321Z,4.40
2019-02-27T14:07:26.188Z,5.50
2019-02-27T14:10:01.089Z,4.43
2019-02-27T14:12:33.476Z,4.67
2019-02-27T14:15:03.294Z,4.10
2019-02-27T14:17:33.207Z,4.17
2019-02-27T14:20:05.722Z,3.77
2019-02-27T14:22:40.393Z,4.00
2019-02-27T14:25:10.341Z,4.30
2019-02-27T14:27:40.461Z,7.27
2019-02-27T14:30:20.315Z,3.80
2019-02-27T14:32:50.606Z,5.20
2019-02-27T14:35:20.783Z,7.87
2019-02-27T14:37:51.210Z,4.20
2019-02-27T14:40:22.651Z,6.27
2019-02-27T14:42:54.914Z,34.77
2019-02-27T14:45:27.355Z,7.53
2019-02-27T14:47:59.589Z,28.40
2019-02-27T14:50:34.625Z,10.20
2019-02-27T14:53:06.556Z,22.43
2019-02-27T14:55:37.422Z,32.23
2019-02-27T14:58:08.763Z,23.50
2019-02-27T15:00:41.023Z,18.03
2019-02-27T15:03:12.807Z,41.70
2019-02-27T15:05:44.940Z,12.87
2019-02-27T15:08:15.427Z,15.37
2019-02-27T15:10:46.830Z,23.87
2019-02-27T15:13:18.558Z,43.33
2019-02-27T15:15:49.392Z,28.20
2019-02-27T15:18:22.526Z,29.07
2019-02-27T15:20:54.654Z,24.73
2019-02-27T15:23:25.594Z,13.53
2019-02-27T15:25:57.628Z,21.07
2019-02-27T15:28:33.072Z,22.53
2019-02-27T15:31:01.275Z,36.47
2019-02-27T15:33:32.611Z,84.00
2019-02-27T15:36:02.587Z,134.90
2019-02-27T15:38:32.439Z,109.20
2019-02-27T15:41:21.815Z,72.70
2019-02-27T15:43:59.859Z,165.03
2019-02-27T15:46:23.839Z,115.83
2019-02-27T15:48:53.908Z,42.37
2019-02-27T15:51:23.679Z,195.57
2019-02-27T15:53:53.000Z,102.73
2019-02-27T15:56:24.049Z,151.02
2019-02-27T15:58:59.314Z,129.23
2019-02-27T16:01:29.495Z,104.30
2019-02-27T16:04:09.898Z,62.88
2019-02-27T16:06:40.714Z,124.80
2019-02-27T16:09:12.246Z,110.40
2019-02-27T16:11:44.761Z,88.93
2019-02-27T16:14:16.044Z,67.70
2019-02-27T16:16:47.577Z,33.97
2019-02-27T16:19:18.755Z,28.52
2019-02-27T16:21:56.816Z,27.83
2019-02-27T16:24:23.681Z,33.67
2019-02-27T16:26:53.577Z,38.40
2019-02-27T16:29:23.663Z,18.57
2019-02-27T16:31:54.389Z,12.13
2019-02-27T16:36:56.480Z,12.03
2019-02-27T16:39:27.444Z,12.47
2019-02-27T16:42:00.855Z,14.30
2019-02-27T16:44:31.722Z,32.67
2019-02-27T16:47:03.580Z,46.17
2019-02-27T16:49:36.151Z,69.53
2019-02-27T16:52:08.778Z,70.80
2019-02-27T16:54:38.727Z,65.07
2019-02-27T16:57:08.617Z,130.47
2019-02-27T16:59:42.264Z,107.50
2019-02-27T17:02:11.201Z,93.03
2019-02-27T17:04:42.770Z,148.37
2019-02-27T17:07:12.686Z,211.87
2019-02-27T17:09:43.848Z,228.60
2019-02-27T17:12:17.047Z,243.93
2019-02-27T17:14:48.864Z,234.10
2019-02-27T17:17:20.162Z,229.43
2019-02-27T17:19:50.145Z,252.40
2019-02-27T17:22:21.228Z,237.07
2019-02-27T17:24:52.177Z,278.53
2019-02-27T17:27:24.258Z,276.07
2019-02-27T17:29:54.375Z,291.90
2019-02-27T17:32:27.482Z,308.90
2019-02-27T17:34:56.901Z,360.63
2019-02-27T17:37:27.872Z,322.63
2019-02-27T17:39:59.292Z,240.63
2019-02-27T17:42:29.518Z,272.67
2019-02-27T17:45:00.054Z,335.47
2019-02-27T17:47:30.970Z,356.00
2019-02-27T17:50:03.294Z,283.73
2019-02-27T17:52:36.195Z,415.17
2019-02-27T17:55:09.582Z,347.03
2019-02-27T17:57:39.414Z,328.87
2019-02-27T18:00:15.998Z,368.30
2019-02-27T18:02:46.149Z,357.43
2019-02-27T18:05:15.273Z,374.63
2019-02-27T18:07:46.195Z,347.00
2019-02-27T18:10:18.269Z,253.23
2019-02-27T18:12:51.748Z,271.13
2019-02-27T18:15:23.219Z,212.07
2019-02-27T18:17:53.213Z,175.33
2019-02-27T18:20:25.611Z,126.33
2019-02-27T18:22:54.929Z,76.87
2019-02-27T18:25:26.079Z,53.37
2019-02-27T18:27:59.581Z,163.77
2019-02-27T18:30:28.738Z,163.83
2019-02-27T18:32:58.610Z,159.37
2019-02-27T18:35:29.780Z,161.50
2019-02-27T18:38:02.712Z,139.77
2019-02-27T18:40:32.523Z,87.33
2019-02-27T18:43:02.532Z,80.27
2019-02-27T18:45:32.444Z,96.03
2019-02-27T18:48:02.287Z,103.65
2019-02-27T18:50:32.307Z,84.13
2019-02-27T18:53:02.158Z,121.23
2019-02-27T18:55:33.054Z,131.13
2019-02-27T18:58:05.617Z,171.60
2019-02-27T19:00:38.109Z,192.20
2019-02-27T19:03:12.914Z,206.50
2019-02-27T19:05:42.621Z,200.63
2019-02-27T19:08:12.559Z,165.93
2019-02-27T19:10:43.657Z,159.53
2019-02-27T19:13:12.809Z,166.37
2019-02-27T19:15:45.682Z,168.33
2019-02-27T19:18:17.261Z,88.27
2019-02-27T19:20:51.192Z,73.47
2019-02-27T19:23:22.221Z,71.50
2019-02-27T19:25:52.100Z,34.63
2019-02-27T19:28:25.768Z,43.57
2019-02-27T19:30:58.220Z,45.80
2019-02-27T19:33:29.484Z,29.73
2019-02-27T19:35:58.732Z,24.50
2019-02-27T19:38:29.715Z,22.63
2019-02-27T19:41:01.283Z,22.80
2019-02-27T19:43:34.723Z,23.80
2019-02-27T19:46:07.021Z,22.70
2019-02-27T19:48:40.522Z,21.90
2019-02-27T19:51:10.355Z,22.47
2019-02-27T19:53:42.575Z,22.63
2019-02-27T19:56:12.987Z,22.45
2019-02-27T19:58:44.079Z,22.03
2019-02-27T20:01:15.066Z,21.30
2019-02-27T20:03:46.136Z,22.13
2019-02-27T20:06:18.603Z,23.50
2019-02-27T20:08:47.765Z,22.10
2019-02-27T20:11:17.605Z,21.87
2019-02-27T20:13:48.575Z,21.70
2019-02-27T20:16:20.566Z,21.03
2019-02-27T20:18:54.753Z,23.30
2019-02-27T20:21:24.083Z,22.15
2019-02-27T20:24:00.997Z,21.63
2019-02-27T20:26:30.877Z,21.00
2019-02-27T20:29:04.222Z,22.75
2019-02-27T20:31:34.250Z,22.67
2019-02-27T20:34:10.713Z,23.57
2019-02-27T20:36:39.856Z,26.23
2019-02-27T20:39:10.816Z,27.77
2019-02-27T20:41:44.068Z,26.87
2019-02-27T20:44:13.956Z,26.60
2019-02-27T20:46:46.454Z,28.07
2019-02-27T20:49:16.576Z,30.70
2019-02-27T20:51:47.757Z,33.90
2019-02-27T20:54:17.740Z,33.20
2019-02-27T20:56:55.343Z,31.80
2019-02-27T20:59:19.251Z,34.17
2019-02-27T21:01:50.202Z,27.27
2019-02-27T21:04:21.889Z,31.60
2019-02-27T21:06:52.291Z,39.43
2019-02-27T21:09:22.360Z,50.20
2019-02-27T21:11:52.348Z,53.97
2019-02-27T21:14:23.565Z,58.20
2019-02-27T21:16:54.885Z,52.65
2019-02-27T21:19:26.108Z,50.10
2019-02-27T21:21:57.347Z,77.20
2019-02-27T21:24:29.385Z,50.80
2019-02-27T21:27:02.100Z,48.30
2019-02-27T21:29:33.155Z,40.63
2019-02-27T21:32:05.459Z,33.17
2019-02-27T21:34:35.517Z,34.13
2019-02-27T21:37:10.102Z,56.87
2019-02-27T21:39:40.691Z,48.27
2019-02-27T21:42:12.344Z,53.20
2019-02-27T21:44:43.274Z,44.80
2019-02-27T21:47:13.367Z,58.00
2019-02-27T21:49:43.408Z,43.97
2019-02-27T21:52:15.420Z,60.63
2019-02-27T21:54:44.697Z,51.77
2019-02-27T21:57:16.894Z,42.57
2019-02-27T21:59:48.002Z,43.70
2019-02-27T22:02:19.395Z,55.58
2019-02-27T22:04:49.294Z,85.17
2019-02-27T22:07:22.327Z,67.17
2019-02-27T22:09:54.226Z,47.97
2019-02-27T22:12:27.532Z,68.97
2019-02-27T22:14:57.301Z,78.73
2019-02-27T22:17:28.333Z,41.07
2019-02-27T22:19:59.373Z,42.93
2019-02-27T22:22:30.430Z,36.10
2019-02-27T22:25:00.408Z,36.37
2019-02-27T22:27:32.596Z,39.80
2019-02-27T22:30:02.424Z,39.37
2019-02-27T22:32:34.730Z,49.37
2019-02-27T22:35:04.983Z,41.97
2019-02-27T22:37:35.931Z,45.57
2019-02-27T22:40:16.154Z,45.63
2019-02-27T22:42:48.651Z,39.97
2019-02-27T22:45:19.382Z,41.50
2019-02-27T22:47:50.174Z,36.57
2019-02-27T22:50:21.363Z,39.63
2019-02-27T22:52:54.645Z,34.23
2019-02-27T22:55:24.439Z,33.83
2019-02-27T22:57:56.765Z,32.20
2019-02-27T23:00:56.536Z,36.57
2019-02-27T23:03:41.128Z,32.90
2019-02-27T23:06:13.425Z,33.83
2019-02-27T23:08:44.632Z,30.63
2019-02-27T23:11:15.653Z,33.13
2019-02-27T23:13:48.452Z,31.90
2019-02-27T23:16:18.571Z,36.80
2019-02-27T23:18:49.290Z,34.87
2019-02-27T23:21:19.179Z,34.63
2019-02-27T23:23:48.539Z,32.63
2019-02-27T23:26:20.128Z,33.80
2019-02-27T23:28:51.053Z,32.27
2019-02-27T23:31:23.333Z,31.20
2019-02-27T23:33:54.059Z,32.83
2019-02-27T23:36:23.894Z,44.95
2019-02-27T23:38:53.738Z,54.67
2019-02-27T23:41:23.912Z,61.33
2019-02-27T23:43:56.100Z,62.90
2019-02-27T23:46:27.198Z,87.73
2019-02-27T23:48:56.976Z,75.30
2019-02-27T23:51:28.015Z,94.23
2019-02-27T23:54:01.326Z,85.63
2019-02-27T23:56:31.835Z,88.97
2019-02-27T23:59:03.355Z,79.97
